Time;durP1;ratioP1;P1;durP2;ratioP2;P2;SDS_P1;SDS_P2;PMS_P1;PMS_P2;Temp;Humidity;BMP_temperature;BMP_pressure;BME280_temperature;BME280_humidity;BME280_pressure;Samples;Min_cycle;Max_cycle;Signal;HPM_P1;HPM_P2
2022/03/14 00:00:43;;;;;;;17.55;8.90;;;;;;;;;;4985025;28;20152;-71
2022/03/14 00:03:10;;;;;;;17.02;8.38;;;;;;;;;;4983066;28;20052;-71
2022/03/14 00:05:36;;;;;;;13.13;7.63;;;;;;;;;;4988930;28;20625;-70
2022/03/14 00:08:02;;;;;;;15.50;8.10;;;;;;;;;;4980691;28;20571;-69
2022/03/14 00:10:28;;;;;;;12.05;8.00;;;;;;;;;;4981877;28;20041;-71
2022/03/14 00:12:58;;;;;;;14.68;8.07;;;;;;;;;;4950822;28;20419;-70
2022/03/14 00:15:28;;;;;;;12.63;7.65;;;;;;;;;;4984808;28;20149;-69
2022/03/14 00:17:54;;;;;;;15.15;8.23;;;;;;;;;;4982956;28;20042;-69
2022/03/14 00:20:20;;;;;;;15.25;9.23;;;;;;;;;;4985173;28;20736;-71
2022/03/14 00:22:46;;;;;;;16.65;8.80;;;;;;;;;;4993126;28;20091;-71
2022/03/14 00:25:12;;;;;;;15.27;9.02;;;;;;;;;;4985837;28;20060;-70
2022/03/14 00:27:37;;;;;;;21.42;8.95;;;;;;;;;;4986386;28;20484;-69
2022/03/14 00:30:08;;;;;;;14.13;8.27;;;;;;;;;;4984092;28;20030;-71
2022/03/14 00:43:54;;;;;;;16.48;7.95;;;;;;;;;;4981343;28;20049;-69
2022/03/14 00:46:20;;;;;;;12.75;7.88;;;;;;;;;;4982777;28;20042;-69
2022/03/14 00:48:46;;;;;;;18.02;8.43;;;;;;;;;;4983704;28;20042;-70
2022/03/14 00:51:12;;;;;;;16.52;7.88;;;;;;;;;;4991196;28;20033;-72
2022/03/14 00:53:38;;;;;;;14.80;8.48;;;;;;;;;;4983673;28;20041;-70
2022/03/14 00:56:04;;;;;;;11.75;7.45;;;;;;;;;;4989769;28;20038;-71
2022/03/14 00:58:29;;;;;;;13.82;8.05;;;;;;;;;;4990818;28;20038;-70
2022/03/14 01:00:55;;;;;;;12.90;7.90;;;;;;;;;;4983994;28;20026;-71
2022/03/14 01:03:21;;;;;;;12.02;7.93;;;;;;;;;;4983398;28;20125;-70
2022/03/14 01:05:46;;;;;;;13.45;8.45;;;;;;;;;;4983695;28;20046;-71
2022/03/14 01:08:12;;;;;;;15.35;7.32;;;;;;;;;;4990423;28;20053;-70
2022/03/14 01:10:37;;;;;;;13.40;8.00;;;;;;;;;;4983384;28;20030;-72
2022/03/14 01:13:04;;;;;;;11.25;7.95;;;;;;;;;;4983068;28;20053;-70
2022/03/14 01:15:32;;;;;;;15.73;7.93;;;;;;;;;;4983156;28;20038;-70
2022/03/14 01:17:59;;;;;;;13.15;7.80;;;;;;;;;;4988421;28;20088;-72
2022/03/14 01:20:25;;;;;;;11.77;7.40;;;;;;;;;;4982980;28;20037;-70
2022/03/14 01:22:51;;;;;;;14.13;7.47;;;;;;;;;;4989825;28;20033;-69
2022/03/14 01:25:16;;;;;;;10.43;7.13;;;;;;;;;;4983101;28;20034;-69
2022/03/14 01:27:41;;;;;;;15.13;8.20;;;;;;;;;;4965601;28;20586;-70
2022/03/14 01:30:07;;;;;;;18.10;10.00;;;;;;;;;;4982117;28;20035;-69
2022/03/14 01:32:34;;;;;;;27.55;13.52;;;;;;;;;;4983451;28;20070;-68
2022/03/14 01:34:59;;;;;;;32.33;14.27;;;;;;;;;;4984465;28;20038;-70
2022/03/14 01:37:24;;;;;;;22.45;10.15;;;;;;;;;;4983027;28;20038;-70
2022/03/14 01:39:50;;;;;;;19.38;9.50;;;;;;;;;;4995560;28;20076;-69
2022/03/14 01:42:17;;;;;;;19.85;9.93;;;;;;;;;;4983706;28;20042;-70
2022/03/14 01:44:43;;;;;;;17.65;9.82;;;;;;;;;;4983119;28;20184;-69
2022/03/14 01:47:08;;;;;;;17.35;10.57;;;;;;;;;;4982259;28;20042;-68
2022/03/14 01:49:34;;;;;;;23.15;10.98;;;;;;;;;;4982420;28;20042;-69
2022/03/14 01:52:01;;;;;;;15.85;8.82;;;;;;;;;;4990318;28;20029;-69
2022/03/14 01:54:27;;;;;;;14.50;9.32;;;;;;;;;;4982663;28;20803;-70
2022/03/14 01:56:53;;;;;;;17.73;9.77;;;;;;;;;;4982417;28;20041;-70
2022/03/14 01:59:20;;;;;;;16.10;9.38;;;;;;;;;;4982221;28;20045;-71
2022/03/14 02:01:45;;;;;;;14.95;9.05;;;;;;;;;;4964577;28;20042;-71
2022/03/14 02:04:10;;;;;;;14.75;8.73;;;;;;;;;;4981072;28;20041;-68
2022/03/14 02:06:37;;;;;;;16.17;9.30;;;;;;;;;;4981952;28;20089;-69
2022/03/14 02:09:03;;;;;;;18.02;8.40;;;;;;;;;;4981516;28;20041;-70
2022/03/14 02:11:29;;;;;;;17.58;10.60;;;;;;;;;;4981686;28;20969;-70
2022/03/14 02:13:54;;;;;;;14.18;9.95;;;;;;;;;;4987681;28;20034;-68
2022/03/14 02:16:20;;;;;;;14.68;8.60;;;;;;;;;;4981639;28;20487;-68
2022/03/14 02:18:45;;;;;;;14.65;8.70;;;;;;;;;;4981586;28;20034;-70
2022/03/14 02:21:13;;;;;;;13.95;9.02;;;;;;;;;;4981403;28;20045;-68
2022/03/14 02:23:39;;;;;;;14.90;9.00;;;;;;;;;;4980803;28;20120;-68
2022/03/14 02:26:04;;;;;;;15.15;9.50;;;;;;;;;;4978967;28;20138;-68
2022/03/14 02:28:31;;;;;;;16.42;9.50;;;;;;;;;;4981116;28;20065;-68
2022/03/14 02:30:57;;;;;;;14.07;9.25;;;;;;;;;;4981665;28;20033;-68
2022/03/14 02:33:23;;;;;;;13.95;8.88;;;;;;;;;;4981187;28;20050;-70
2022/03/14 02:35:50;;;;;;;19.98;10.13;;;;;;;;;;4991210;28;20042;-69
2022/03/14 02:38:16;;;;;;;14.60;8.50;;;;;;;;;;4994719;28;20087;-70
2022/03/14 02:40:46;;;;;;;18.05;9.00;;;;;;;;;;4978622;28;20038;-71
2022/03/14 02:43:20;;;;;;;20.65;9.20;;;;;;;;;;4981506;28;20046;-69
2022/03/14 02:45:47;;;;;;;13.98;8.38;;;;;;;;;;4978097;28;20392;-69
2022/03/14 02:48:16;;;;;;;16.35;8.95;;;;;;;;;;4980344;28;20476;-71
2022/03/14 02:50:43;;;;;;;16.27;9.40;;;;;;;;;;4981222;28;20037;-69
2022/03/14 02:53:11;;;;;;;15.25;8.90;;;;;;;;;;4980995;28;20042;-71
2022/03/14 02:55:37;;;;;;;16.35;8.60;;;;;;;;;;4981065;28;20038;-70
2022/03/14 02:58:03;;;;;;;12.73;8.60;;;;;;;;;;4986145;28;20598;-69
2022/03/14 03:00:29;;;;;;;14.57;8.38;;;;;;;;;;4982065;28;20038;-71
2022/03/14 03:02:55;;;;;;;18.38;8.93;;;;;;;;;;4981406;28;20133;-69
2022/03/14 03:05:21;;;;;;;16.45;8.95;;;;;;;;;;4981911;28;20034;-71
2022/03/14 03:07:48;;;;;;;18.73;9.27;;;;;;;;;;4985484;28;20474;-71
2022/03/14 03:10:13;;;;;;;15.18;9.23;;;;;;;;;;4982141;28;20030;-68
2022/03/14 03:12:40;;;;;;;17.52;9.25;;;;;;;;;;4981461;28;20551;-70
2022/03/14 03:15:07;;;;;;;14.43;8.82;;;;;;;;;;4984145;28;20042;-69
2022/03/14 03:17:33;;;;;;;13.82;7.50;;;;;;;;;;4999105;28;20045;-70
2022/03/14 03:19:58;;;;;;;13.20;8.07;;;;;;;;;;4987728;28;20030;-71
2022/03/14 03:22:26;;;;;;;14.43;8.15;;;;;;;;;;4987656;28;20115;-70
2022/03/14 03:24:51;;;;;;;12.07;7.55;;;;;;;;;;4985763;28;20042;-70
2022/03/14 03:27:16;;;;;;;12.88;7.80;;;;;;;;;;4990322;28;20049;-68
2022/03/14 03:29:42;;;;;;;12.35;7.63;;;;;;;;;;4990310;28;20103;-70
2022/03/14 03:32:07;;;;;;;16.05;6.45;;;;;;;;;;4982651;28;20030;-70
2022/03/14 03:34:33;;;;;;;10.70;5.85;;;;;;;;;;4980844;28;20088;-69
2022/03/14 03:36:58;;;;;;;14.98;7.38;;;;;;;;;;4980429;28;20113;-69
2022/03/14 03:39:25;;;;;;;14.65;8.88;;;;;;;;;;4981448;28;20038;-70
2022/03/14 03:41:50;;;;;;;14.85;8.52;;;;;;;;;;4972064;28;20030;-71
2022/03/14 03:44:15;;;;;;;14.25;8.35;;;;;;;;;;4981345;28;20334;-70
2022/03/14 03:46:41;;;;;;;16.48;9.30;;;;;;;;;;4981006;28;20542;-68
2022/03/14 03:49:06;;;;;;;12.10;7.05;;;;;;;;;;4984773;28;20688;-70
2022/03/14 03:51:32;;;;;;;15.80;7.75;;;;;;;;;;4984238;28;20073;-69
2022/03/14 03:53:57;;;;;;;12.05;7.13;;;;;;;;;;4985147;28;20037;-71
2022/03/14 03:56:23;;;;;;;7.88;5.47;;;;;;;;;;4984238;28;20030;-69
2022/03/14 03:58:48;;;;;;;7.80;4.78;;;;;;;;;;4984596;28;20491;-70
2022/03/14 04:01:23;;;;;;;10.68;4.80;;;;;;;;;;4984727;28;20041;-70
2022/03/14 04:03:54;;;;;;;6.43;3.80;;;;;;;;;;4978584;28;20030;-69
2022/03/14 04:06:20;;;;;;;11.13;4.30;;;;;;;;;;4994676;28;20038;-68
2022/03/14 04:08:46;;;;;;;7.13;4.47;;;;;;;;;;4989912;28;20026;-70
2022/03/14 04:11:11;;;;;;;9.60;5.85;;;;;;;;;;4984256;28;20034;-71
2022/03/14 04:13:37;;;;;;;9.38;5.32;;;;;;;;;;4987546;28;20078;-71
2022/03/14 04:16:04;;;;;;;11.95;6.60;;;;;;;;;;4986850;28;20032;-68
2022/03/14 04:18:29;;;;;;;14.23;6.63;;;;;;;;;;4984697;28;20461;-69
2022/03/14 04:20:55;;;;;;;9.43;5.63;;;;;;;;;;4984438;28;20566;-71
2022/03/14 04:23:21;;;;;;;9.68;6.07;;;;;;;;;;4992496;28;20034;-68
2022/03/14 04:25:48;;;;;;;9.93;5.72;;;;;;;;;;4983467;28;20443;-71
2022/03/14 04:28:15;;;;;;;12.88;5.35;;;;;;;;;;4990891;28;20290;-68
2022/03/14 04:30:40;;;;;;;9.05;5.40;;;;;;;;;;4984663;28;20064;-68
2022/03/14 04:33:08;;;;;;;10.88;6.03;;;;;;;;;;4984143;28;20545;-69
2022/03/14 04:35:35;;;;;;;9.85;5.90;;;;;;;;;;4983718;28;20038;-70
2022/03/14 04:38:02;;;;;;;10.82;5.53;;;;;;;;;;4983937;28;20651;-70
2022/03/14 04:40:27;;;;;;;12.48;7.38;;;;;;;;;;4982039;28;20046;-69
2022/03/14 04:42:53;;;;;;;10.88;6.35;;;;;;;;;;4983860;28;20035;-69
2022/03/14 04:45:18;;;;;;;12.80;7.68;;;;;;;;;;4983730;28;20035;-69
2022/03/14 04:47:44;;;;;;;14.15;7.68;;;;;;;;;;4994104;28;20152;-70
2022/03/14 04:50:09;;;;;;;13.30;7.20;;;;;;;;;;4984982;28;20070;-69
2022/03/14 04:52:36;;;;;;;9.60;5.38;;;;;;;;;;4983902;28;20088;-70
2022/03/14 04:55:02;;;;;;;10.20;6.63;;;;;;;;;;4981798;28;20034;-68
2022/03/14 04:57:28;;;;;;;10.95;6.22;;;;;;;;;;4967683;28;20124;-70
2022/03/14 04:59:53;;;;;;;16.25;7.97;;;;;;;;;;4992243;28;20036;-71
2022/03/14 05:02:22;;;;;;;13.52;8.32;;;;;;;;;;4984020;28;20454;-69
2022/03/14 05:04:49;;;;;;;10.13;7.10;;;;;;;;;;4993102;28;20177;-68
2022/03/14 05:07:14;;;;;;;10.55;7.05;;;;;;;;;;4961916;28;20112;-71
2022/03/14 05:09:40;;;;;;;14.50;8.70;;;;;;;;;;4990549;28;20654;-68
2022/03/14 05:12:06;;;;;;;11.07;6.57;;;;;;;;;;4995589;28;20046;-71
2022/03/14 05:14:31;;;;;;;16.33;9.52;;;;;;;;;;4994969;28;20521;-70
2022/03/14 05:16:57;;;;;;;14.35;9.38;;;;;;;;;;4987916;28;20042;-71
2022/03/14 05:19:22;;;;;;;18.45;10.77;;;;;;;;;;4984423;28;20038;-71
2022/03/14 05:21:48;;;;;;;16.10;9.38;;;;;;;;;;4991505;28;20121;-71
2022/03/14 05:24:14;;;;;;;19.15;9.80;;;;;;;;;;4985823;28;20426;-69
2022/03/14 05:26:39;;;;;;;21.02;10.15;;;;;;;;;;4986439;28;20226;-71
2022/03/14 05:29:05;;;;;;;15.55;9.38;;;;;;;;;;4973954;28;20809;-70
2022/03/14 05:31:30;;;;;;;15.13;9.18;;;;;;;;;;4990950;28;20088;-70
2022/03/14 05:33:56;;;;;;;23.08;10.63;;;;;;;;;;4993396;28;20046;-70
2022/03/14 05:36:21;;;;;;;16.77;9.77;;;;;;;;;;4989816;28;20034;-67
2022/03/14 05:38:47;;;;;;;17.75;10.65;;;;;;;;;;4988256;28;20133;-69
2022/03/14 05:41:12;;;;;;;21.55;11.07;;;;;;;;;;4987134;28;20069;-70
2022/03/14 05:43:38;;;;;;;16.02;9.70;;;;;;;;;;4987639;28;20038;-69
2022/03/14 05:46:07;;;;;;;18.92;11.18;;;;;;;;;;4968769;28;20068;-69
2022/03/14 05:48:35;;;;;;;18.73;10.23;;;;;;;;;;4987508;28;20770;-68
2022/03/14 05:51:05;;;;;;;19.23;10.02;;;;;;;;;;4987487;28;20246;-70
2022/03/14 05:53:31;;;;;;;17.98;10.05;;;;;;;;;;4976186;28;20776;-66
2022/03/14 05:55:57;;;;;;;17.38;10.07;;;;;;;;;;4998237;28;20500;-69
2022/03/14 05:58:23;;;;;;;14.48;8.40;;;;;;;;;;4990472;28;20040;-68
2022/03/14 06:00:48;;;;;;;14.57;8.98;;;;;;;;;;4993328;28;20030;-67
2022/03/14 06:03:15;;;;;;;14.38;7.93;;;;;;;;;;4988346;28;20065;-69
2022/03/14 06:05:40;;;;;;;14.57;8.07;;;;;;;;;;4986834;28;20037;-68
2022/03/14 06:08:06;;;;;;;13.48;8.00;;;;;;;;;;4988177;28;20031;-67
2022/03/14 06:10:32;;;;;;;19.40;9.07;;;;;;;;;;4986740;28;20454;-69
2022/03/14 06:12:58;;;;;;;12.68;7.85;;;;;;;;;;4984257;28;20526;-66
2022/03/14 06:15:24;;;;;;;12.75;7.72;;;;;;;;;;4980841;28;20580;-68
2022/03/14 06:17:49;;;;;;;11.43;6.60;;;;;;;;;;4985849;28;20065;-69
2022/03/14 06:20:15;;;;;;;12.85;7.03;;;;;;;;;;4984312;28;20046;-69
2022/03/14 06:22:42;;;;;;;10.60;6.63;;;;;;;;;;4980595;28;20033;-66
2022/03/14 06:25:09;;;;;;;9.50;6.13;;;;;;;;;;4982698;28;20518;-66
2022/03/14 06:27:35;;;;;;;10.68;6.50;;;;;;;;;;4980846;28;20109;-68
2022/03/14 06:30:00;;;;;;;10.00;6.22;;;;;;;;;;4980073;28;20149;-69
2022/03/14 06:32:33;;;;;;;8.18;5.60;;;;;;;;;;4982519;28;20038;-69
2022/03/14 06:34:58;;;;;;;8.65;5.63;;;;;;;;;;4985369;28;20042;-68
2022/03/14 06:37:25;;;;;;;8.10;5.63;;;;;;;;;;4985888;28;20049;-69
2022/03/14 06:39:50;;;;;;;9.13;5.60;;;;;;;;;;4984676;28;20077;-66
2022/03/14 06:46:04;;;;;;;5.82;3.55;;;;;;;;;;4983852;28;20040;-67
2022/03/14 06:48:30;;;;;;;5.85;4.00;;;;;;;;;;4985400;28;20049;-68
2022/03/14 06:50:56;;;;;;;6.88;4.40;;;;;;;;;;4985599;28;20061;-66
2022/03/14 06:53:22;;;;;;;5.78;3.60;;;;;;;;;;4981079;28;20045;-67
2022/03/14 06:55:47;;;;;;;7.60;4.10;;;;;;;;;;4981221;28;20080;-69
2022/03/14 06:58:13;;;;;;;6.32;4.10;;;;;;;;;;4987785;28;20499;-68
2022/03/14 07:00:38;;;;;;;4.57;3.22;;;;;;;;;;4996914;28;20041;-69
2022/03/14 07:03:07;;;;;;;3.88;3.13;;;;;;;;;;4996804;28;20041;-68
2022/03/14 07:05:32;;;;;;;5.05;3.20;;;;;;;;;;4990442;28;20030;-69
2022/03/14 07:07:58;;;;;;;5.18;3.60;;;;;;;;;;4993260;28;20152;-67
2022/03/14 07:10:24;;;;;;;5.13;3.10;;;;;;;;;;4993155;28;20565;-68
2022/03/14 07:12:50;;;;;;;7.68;3.20;;;;;;;;;;4990524;28;20030;-68
2022/03/14 07:15:21;;;;;;;4.95;3.97;;;;;;;;;;4992141;28;20034;-69
2022/03/14 07:17:49;;;;;;;5.30;3.63;;;;;;;;;;4981596;28;20030;-67
2022/03/14 07:20:18;;;;;;;3.38;2.45;;;;;;;;;;4981453;28;20096;-69
2022/03/14 07:23:00;;;;;;;5.25;3.60;;;;;;;;;;4983284;28;20042;-69
2022/03/14 07:25:31;;;;;;;4.65;3.65;;;;;;;;;;4984938;28;20120;-69
2022/03/14 07:28:01;;;;;;;4.72;3.45;;;;;;;;;;4993115;28;20388;-66
2022/03/14 07:30:27;;;;;;;5.78;3.63;;;;;;;;;;4985261;28;20090;-66
2022/03/14 07:32:53;;;;;;;4.45;3.33;;;;;;;;;;4985584;28;20452;-68
2022/03/14 07:35:19;;;;;;;3.03;2.72;;;;;;;;;;4984472;28;20042;-64
2022/03/14 07:37:45;;;;;;;7.78;2.50;;;;;;;;;;4987799;28;20085;-65
2022/03/14 07:40:12;;;;;;;3.88;2.97;;;;;;;;;;4985430;28;20077;-69
2022/03/14 07:42:40;;;;;;;3.22;2.50;;;;;;;;;;4985516;28;20138;-67
2022/03/14 07:45:06;;;;;;;2.80;2.10;;;;;;;;;;4985250;28;20120;-68
2022/03/14 07:47:31;;;;;;;13.50;2.63;;;;;;;;;;4984369;28;20483;-68
2022/03/14 07:49:57;;;;;;;3.50;2.83;;;;;;;;;;4987711;28;20034;-70
2022/03/14 07:52:23;;;;;;;2.63;2.10;;;;;;;;;;4987889;28;20022;-66
2022/03/14 07:54:48;;;;;;;2.25;1.90;;;;;;;;;;4986739;28;20041;-68
2022/03/14 07:57:14;;;;;;;2.83;1.80;;;;;;;;;;4984155;28;20380;-69
2022/03/14 07:59:39;;;;;;;2.03;1.83;;;;;;;;;;4987111;28;20399;-70
2022/03/14 08:02:06;;;;;;;2.83;1.88;;;;;;;;;;4985495;28;20193;-68
2022/03/14 08:04:33;;;;;;;2.42;2.05;;;;;;;;;;4984238;28;21018;-69
2022/03/14 08:06:59;;;;;;;2.15;1.90;;;;;;;;;;4984602;28;20113;-69
2022/03/14 08:09:24;;;;;;;1.80;1.60;;;;;;;;;;4993698;28;20048;-67
2022/03/14 08:11:50;;;;;;;2.92;1.95;;;;;;;;;;4985606;28;20030;-68
2022/03/14 08:14:16;;;;;;;4.13;1.70;;;;;;;;;;4986658;28;20115;-66
2022/03/14 08:16:41;;;;;;;1.15;1.05;;;;;;;;;;4985421;28;20042;-68
2022/03/14 08:19:07;;;;;;;1.60;1.42;;;;;;;;;;4967768;28;20381;-67
2022/03/14 08:21:33;;;;;;;1.10;1.00;;;;;;;;;;4990838;28;20040;-66
2022/03/14 08:23:58;;;;;;;1.00;1.00;;;;;;;;;;4988240;28;20432;-67
2022/03/14 08:26:24;;;;;;;1.48;1.25;;;;;;;;;;4993106;28;20102;-64
2022/03/14 08:28:50;;;;;;;1.63;1.52;;;;;;;;;;4992215;28;20041;-68
2022/03/14 08:31:18;;;;;;;3.10;1.25;;;;;;;;;;4992927;28;21116;-68
2022/03/14 08:33:45;;;;;;;4.07;1.42;;;;;;;;;;4992214;28;20035;-68
2022/03/14 08:36:10;;;;;;;1.00;0.90;;;;;;;;;;4986474;28;20046;-68
2022/03/14 08:38:37;;;;;;;0.85;0.73;;;;;;;;;;4990615;28;20068;-69
2022/03/14 08:41:02;;;;;;;0.73;0.73;;;;;;;;;;4996063;28;20112;-70
2022/03/14 08:43:28;;;;;;;1.42;1.00;;;;;;;;;;4983512;28;20125;-69
2022/03/14 08:45:54;;;;;;;0.60;0.60;;;;;;;;;;4984070;28;20092;-68
2022/03/14 08:48:21;;;;;;;1.95;0.85;;;;;;;;;;4991543;28;20038;-68
2022/03/14 08:50:46;;;;;;;0.63;0.63;;;;;;;;;;4988564;28;20132;-68
2022/03/14 08:53:12;;;;;;;1.40;0.82;;;;;;;;;;4965556;28;20034;-67
2022/03/14 08:55:37;;;;;;;0.88;0.85;;;;;;;;;;4987059;28;20037;-66
2022/03/14 08:58:03;;;;;;;0.93;0.80;;;;;;;;;;4969300;28;20036;-70
2022/03/14 09:00:29;;;;;;;3.13;1.00;;;;;;;;;;4988134;28;20038;-68
2022/03/14 09:02:55;;;;;;;0.80;0.80;;;;;;;;;;4973282;28;20069;-70
2022/03/14 09:05:21;;;;;;;1.00;0.77;;;;;;;;;;4982338;28;20100;-70
2022/03/14 09:07:47;;;;;;;1.55;0.70;;;;;;;;;;4971658;28;20522;-68
2022/03/14 09:10:14;;;;;;;46.92;6.00;;;;;;;;;;4984072;28;20049;-67
2022/03/14 09:12:42;;;;;;;0.80;0.80;;;;;;;;;;4983536;28;20217;-70
2022/03/14 09:15:09;;;;;;;0.75;0.75;;;;;;;;;;4989031;28;20038;-70
2022/03/14 09:17:35;;;;;;;0.77;0.77;;;;;;;;;;4990747;28;20042;-69
2022/03/14 09:20:01;;;;;;;0.60;0.60;;;;;;;;;;4983088;28;20124;-68
2022/03/14 09:22:27;;;;;;;3.05;0.50;;;;;;;;;;4983609;28;20034;-68
2022/03/14 09:24:55;;;;;;;0.60;0.60;;;;;;;;;;4983373;28;20038;-69
2022/03/14 09:27:23;;;;;;;0.43;0.43;;;;;;;;;;4988311;28;20030;-67
2022/03/14 09:29:50;;;;;;;0.50;0.50;;;;;;;;;;4983066;28;20030;-69
2022/03/14 09:32:16;;;;;;;0.40;0.40;;;;;;;;;;4982659;28;20046;-70
2022/03/14 09:34:42;;;;;;;0.30;0.30;;;;;;;;;;4983282;28;20057;-68
2022/03/14 09:37:08;;;;;;;0.60;0.60;;;;;;;;;;4996346;28;20141;-68
2022/03/14 09:39:34;;;;;;;1.02;0.30;;;;;;;;;;4965168;28;20104;-69
2022/03/14 09:42:01;;;;;;;1.02;0.63;;;;;;;;;;4983250;28;20080;-69
2022/03/14 09:44:29;;;;;;;0.50;0.50;;;;;;;;;;4982704;28;20034;-70
2022/03/14 09:47:00;;;;;;;0.50;0.50;;;;;;;;;;4982536;28;20045;-70
2022/03/14 09:49:27;;;;;;;1.95;0.63;;;;;;;;;;4987793;28;20074;-67
2022/03/14 09:51:53;;;;;;;2.70;0.68;;;;;;;;;;4983181;28;20122;-70
2022/03/14 09:54:21;;;;;;;0.50;0.50;;;;;;;;;;4982825;28;20042;-70
2022/03/14 09:56:47;;;;;;;0.63;0.40;;;;;;;;;;4983073;28;20068;-68
2022/03/14 09:59:12;;;;;;;0.95;0.50;;;;;;;;;;4987616;28;20042;-68
2022/03/14 10:01:38;;;;;;;0.60;0.60;;;;;;;;;;4982744;28;20450;-67
2022/03/14 10:04:04;;;;;;;1.05;0.40;;;;;;;;;;4982764;28;20046;-67
2022/03/14 10:06:30;;;;;;;0.30;0.30;;;;;;;;;;4989218;28;20483;-70
2022/03/14 10:08:55;;;;;;;1.40;0.85;;;;;;;;;;4982441;28;20034;-69
2022/03/14 10:11:21;;;;;;;2.83;0.47;;;;;;;;;;4996466;28;20066;-71
2022/03/14 10:13:46;;;;;;;0.50;0.50;;;;;;;;;;4982510;28;20042;-68
2022/03/14 10:16:12;;;;;;;0.50;0.50;;;;;;;;;;4985413;28;20056;-68
2022/03/14 10:18:55;;;;;;;0.50;0.50;;;;;;;;;;4982078;28;20042;-71
2022/03/14 10:21:32;;;;;;;0.50;0.50;;;;;;;;;;4987658;28;20042;-70
2022/03/14 10:24:06;;;;;;;0.50;0.50;;;;;;;;;;4981535;28;20026;-69
2022/03/14 10:26:33;;;;;;;0.40;0.40;;;;;;;;;;4981525;28;20042;-69
2022/03/14 10:29:01;;;;;;;0.88;0.50;;;;;;;;;;4987370;28;20034;-67
2022/03/14 10:31:38;;;;;;;0.50;0.50;;;;;;;;;;4988343;28;20046;-70
2022/03/14 10:34:11;;;;;;;0.57;0.57;;;;;;;;;;4989482;28;20141;-67
2022/03/14 10:36:45;;;;;;;0.60;0.60;;;;;;;;;;4968083;28;20479;-69
2022/03/14 10:39:31;;;;;;;0.40;0.40;;;;;;;;;;4987370;28;20054;-68
2022/03/14 10:42:13;;;;;;;0.40;0.40;;;;;;;;;;4981406;28;20053;-69
2022/03/14 10:44:41;;;;;;;0.40;0.40;;;;;;;;;;4982091;28;20034;-70
2022/03/14 10:47:09;;;;;;;0.60;0.60;;;;;;;;;;4982526;28;20610;-69
2022/03/14 10:49:38;;;;;;;0.70;0.50;;;;;;;;;;4988842;28;20038;-70
2022/03/14 10:52:08;;;;;;;5.05;1.13;;;;;;;;;;4984271;28;20538;-69
2022/03/14 10:54:35;;;;;;;0.50;0.50;;;;;;;;;;4982597;28;20058;-68
2022/03/14 10:57:17;;;;;;;2.08;0.60;;;;;;;;;;4994135;28;20037;-70
2022/03/14 10:59:53;;;;;;;21.77;1.25;;;;;;;;;;4966444;28;20061;-70
2022/03/14 11:02:22;;;;;;;0.75;0.57;;;;;;;;;;4982080;28;20084;-69
2022/03/14 11:04:52;;;;;;;10.55;0.93;;;;;;;;;;4986022;28;20041;-65
2022/03/14 11:07:20;;;;;;;0.40;0.40;;;;;;;;;;4986755;28;20100;-68
2022/03/14 11:09:47;;;;;;;0.60;0.60;;;;;;;;;;4981586;28;20031;-66
2022/03/14 11:12:16;;;;;;;0.50;0.45;;;;;;;;;;4983337;28;20042;-69
2022/03/14 11:14:42;;;;;;;1.75;0.50;;;;;;;;;;4987566;28;20025;-65
2022/03/14 11:17:15;;;;;;;0.40;0.40;;;;;;;;;;4982178;28;20395;-68
2022/03/14 11:19:41;;;;;;;0.40;0.40;;;;;;;;;;4981755;28;20617;-65
2022/03/14 11:22:12;;;;;;;1.83;0.60;;;;;;;;;;4981768;28;20048;-68
2022/03/14 11:24:40;;;;;;;0.57;0.57;;;;;;;;;;4990184;28;20061;-69
2022/03/14 11:27:09;;;;;;;0.73;0.50;;;;;;;;;;4989363;28;20052;-68
2022/03/14 11:29:36;;;;;;;0.68;0.68;;;;;;;;;;4981220;28;20045;-66
2022/03/14 11:32:04;;;;;;;0.47;0.47;;;;;;;;;;4981563;28;20388;-67
2022/03/14 11:34:31;;;;;;;0.45;0.45;;;;;;;;;;4983099;28;20061;-68
2022/03/14 11:36:57;;;;;;;3.08;0.43;;;;;;;;;;4982031;28;20073;-67
2022/03/14 11:39:23;;;;;;;2.92;0.38;;;;;;;;;;4986613;28;20049;-66
2022/03/14 11:41:48;;;;;;;0.88;0.60;;;;;;;;;;4994318;28;20034;-70
2022/03/14 11:44:15;;;;;;;0.68;0.55;;;;;;;;;;4981478;28;20050;-69
2022/03/14 11:46:41;;;;;;;0.95;0.60;;;;;;;;;;4981432;28;20484;-68
2022/03/14 11:49:15;;;;;;;0.40;0.40;;;;;;;;;;4985994;28;20048;-69
2022/03/14 11:51:41;;;;;;;0.60;0.60;;;;;;;;;;4992665;28;20498;-68
2022/03/14 11:54:14;;;;;;;2.40;0.38;;;;;;;;;;4996269;28;20041;-69
2022/03/14 11:56:56;;;;;;;0.43;0.43;;;;;;;;;;4989269;28;20034;-68
2022/03/14 11:59:26;;;;;;;;;;;;;;;;;;4981220;28;20391;-67
2022/03/14 12:01:51;;;;;;;0.60;0.43;;;;;;;;;;4981652;28;19917;-69
2022/03/14 12:04:37;;;;;;;0.45;0.45;;;;;;;;;;4981046;28;20049;-67
2022/03/14 12:07:07;;;;;;;1.00;0.60;;;;;;;;;;4987138;28;20072;-67
2022/03/14 12:09:33;;;;;;;0.68;0.60;;;;;;;;;;4983796;28;20049;-69
2022/03/14 12:12:21;;;;;;;2.90;0.95;;;;;;;;;;4985151;28;20039;-68
2022/03/14 12:14:50;;;;;;;0.30;0.30;;;;;;;;;;4978069;28;20034;-69
2022/03/14 12:17:16;;;;;;;0.90;0.60;;;;;;;;;;4985526;28;20478;-69
2022/03/14 12:20:01;;;;;;;1.45;1.20;;;;;;;;;;4984675;28;20551;-68
2022/03/14 12:22:29;;;;;;;1.08;0.77;;;;;;;;;;4990780;28;20034;-69
2022/03/14 12:24:56;;;;;;;2.03;0.75;;;;;;;;;;4984006;28;20265;-68
2022/03/14 12:27:33;;;;;;;1.15;0.70;;;;;;;;;;4991009;28;20072;-70
2022/03/14 12:29:59;;;;;;;0.50;0.50;;;;;;;;;;4984153;28;20117;-67
2022/03/14 12:32:26;;;;;;;2.95;0.50;;;;;;;;;;4984264;28;20491;-68
2022/03/14 12:35:00;;;;;;;2.00;0.50;;;;;;;;;;4984130;28;20038;-67
2022/03/14 12:37:38;;;;;;;1.45;0.60;;;;;;;;;;4983679;28;20334;-68
2022/03/14 12:40:28;;;;;;;1.85;0.50;;;;;;;;;;4983830;28;20133;-69
2022/03/14 12:42:54;;;;;;;0.80;0.65;;;;;;;;;;4971497;28;20085;-69
2022/03/14 12:45:28;;;;;;;0.68;0.60;;;;;;;;;;4983100;28;20475;-67
2022/03/14 12:47:57;;;;;;;4.13;0.52;;;;;;;;;;4983966;28;20044;-68
2022/03/14 12:50:43;;;;;;;15.10;1.60;;;;;;;;;;4988770;28;20121;-69
2022/03/14 12:53:13;;;;;;;0.45;0.45;;;;;;;;;;4985766;28;20042;-66
2022/03/14 12:56:12;;;;;;;2.10;0.60;;;;;;;;;;4989539;28;20046;-67
2022/03/14 12:58:38;;;;;;;0.68;0.63;;;;;;;;;;4988292;28;20097;-69
2022/03/14 13:01:08;;;;;;;1.23;0.70;;;;;;;;;;4989638;28;20434;-69
2022/03/14 13:03:35;;;;;;;0.70;0.70;;;;;;;;;;4984363;28;20041;-68
2022/03/14 13:06:01;;;;;;;0.50;0.50;;;;;;;;;;4989308;28;20388;-67
2022/03/14 13:08:27;;;;;;;0.80;0.80;;;;;;;;;;4983356;28;20121;-67
2022/03/14 13:10:57;;;;;;;1.02;0.65;;;;;;;;;;4983661;28;20113;-69
2022/03/14 13:13:27;;;;;;;2.25;0.80;;;;;;;;;;4966410;28;20034;-67
2022/03/14 13:16:17;;;;;;;5.22;0.98;;;;;;;;;;4985273;28;20119;-69
2022/03/14 13:18:46;;;;;;;3.72;0.90;;;;;;;;;;4982536;28;20681;-69
2022/03/14 13:21:20;;;;;;;0.65;0.65;;;;;;;;;;4971181;28;20038;-68
2022/03/14 13:24:06;;;;;;;0.63;0.63;;;;;;;;;;4993001;28;20044;-68
2022/03/14 13:26:35;;;;;;;0.90;0.90;;;;;;;;;;4983024;28;20045;-70
2022/03/14 13:29:02;;;;;;;0.88;0.70;;;;;;;;;;4981889;28;20030;-71
2022/03/14 13:31:33;;;;;;;1.55;0.70;;;;;;;;;;4990336;28;20042;-69
2022/03/14 13:33:59;;;;;;;0.98;0.90;;;;;;;;;;4982011;28;20590;-70
2022/03/14 13:36:25;;;;;;;0.77;0.77;;;;;;;;;;4982750;28;20885;-69
2022/03/14 13:38:55;;;;;;;0.90;0.90;;;;;;;;;;4987583;28;20779;-69
2022/03/14 13:41:28;;;;;;;1.80;1.08;;;;;;;;;;4982957;28;20080;-68
2022/03/14 13:43:57;;;;;;;1.13;0.90;;;;;;;;;;4983063;28;20034;-69
2022/03/14 13:46:35;;;;;;;1.27;0.80;;;;;;;;;;4983212;28;20052;-67
2022/03/14 13:49:04;;;;;;;1.20;0.80;;;;;;;;;;4982471;28;20033;-69
2022/03/14 13:51:34;;;;;;;3.75;0.80;;;;;;;;;;4991403;28;20100;-70
2022/03/14 13:54:22;;;;;;;3.05;1.30;;;;;;;;;;4992833;28;20046;-69
2022/03/14 13:56:49;;;;;;;1.30;0.88;;;;;;;;;;4991376;28;20046;-70
2022/03/14 13:59:33;;;;;;;2.92;1.55;;;;;;;;;;4975868;28;20057;-68
2022/03/14 14:02:08;;;;;;;3.03;0.90;;;;;;;;;;4990578;28;20735;-67
2022/03/14 14:04:44;;;;;;;1.73;1.05;;;;;;;;;;4986790;28;20496;-70
2022/03/14 14:07:20;;;;;;;0.90;0.85;;;;;;;;;;4981520;28;21094;-67
2022/03/14 14:09:47;;;;;;;0.80;0.80;;;;;;;;;;4982578;28;20053;-69
2022/03/14 14:12:15;;;;;;;1.38;1.27;;;;;;;;;;4988251;28;20746;-69
2022/03/14 14:18:29;;;;;;;1.20;1.10;;;;;;;;;;4984207;28;20523;-68
2022/03/14 14:20:54;;;;;;;27.83;3.35;;;;;;;;;;4982444;28;20524;-68
2022/03/14 14:23:22;;;;;;;4.50;1.20;;;;;;;;;;4980993;28;20113;-65
2022/03/14 14:25:51;;;;;;;0.98;0.90;;;;;;;;;;4983326;28;20042;-67
2022/03/14 14:28:21;;;;;;;1.50;1.15;;;;;;;;;;4988149;28;20530;-68
2022/03/14 14:30:48;;;;;;;5.10;0.98;;;;;;;;;;4984284;28;20042;-68
2022/03/14 14:33:18;;;;;;;3.55;1.20;;;;;;;;;;4981760;28;20038;-67
2022/03/14 14:35:46;;;;;;;2.90;1.25;;;;;;;;;;4987242;28;20030;-65
2022/03/14 14:38:13;;;;;;;2.63;1.30;;;;;;;;;;4986713;28;20438;-68
2022/03/14 14:40:46;;;;;;;8.25;0.95;;;;;;;;;;4990213;28;20034;-65
2022/03/14 14:43:13;;;;;;;2.38;1.35;;;;;;;;;;4981331;28;20042;-69
2022/03/14 14:45:54;;;;;;;3.38;1.17;;;;;;;;;;4994422;28;20033;-66
2022/03/14 14:48:20;;;;;;;4.95;1.02;;;;;;;;;;4988611;28;20038;-70
2022/03/14 14:50:47;;;;;;;2.55;1.00;;;;;;;;;;4972122;28;20120;-66
2022/03/14 14:53:16;;;;;;;0.95;0.88;;;;;;;;;;4981860;28;20037;-67
2022/03/14 14:55:44;;;;;;;1.02;0.93;;;;;;;;;;4984596;28;20402;-69
2022/03/14 14:58:10;;;;;;;1.30;1.10;;;;;;;;;;4985472;28;20873;-68
2022/03/14 15:00:37;;;;;;;3.40;1.00;;;;;;;;;;4985246;28;20068;-68